Time;durP1;ratioP1;P1;durP2;ratioP2;P2;SDS_P1;SDS_P2;PMS_P1;PMS_P2;Temp;Humidity;BMP_temperature;BMP_pressure;BME280_temperature;BME280_humidity;BME280_pressure;Samples;Min_cycle;Max_cycle;Signal;HPM_P1;HPM_P2
2023/07/04 00:02:16;;;;;;;12.50;10.63;;;;;;;21.68;81.19;96917.59;5033588;28;20324;-76
2023/07/04 00:05:40;;;;;;;13.63;10.87;;;;;;;21.51;81.07;96907.81;5067103;28;20202;-80
2023/07/04 00:09:01;;;;;;;13.03;11.37;;;;;;;21.38;81.93;96912.53;5049417;28;20243;-76
2023/07/04 00:12:22;;;;;;;13.47;10.77;;;;;;;21.36;81.80;96912.66;5048883;28;20293;-75
2023/07/04 00:15:44;;;;;;;12.80;10.80;;;;;;;21.55;81.21;96917.09;5066533;28;20704;-75
2023/07/04 00:19:06;;;;;;;13.20;11.00;;;;;;;21.82;79.50;96925.13;5066476;28;20204;-74
2023/07/04 00:22:27;;;;;;;15.53;11.97;;;;;;;22.00;78.87;96923.41;5067000;28;20203;-75
2023/07/04 00:26:04;;;;;;;16.83;11.83;;;;;;;21.80;79.12;96914.69;5066936;28;20199;-76
2023/07/04 00:29:25;;;;;;;13.60;11.57;;;;;;;21.62;79.84;96929.56;5066513;28;20301;-75
2023/07/04 00:32:46;;;;;;;15.50;12.07;;;;;;;21.34;80.92;96921.66;5033678;28;20227;-80
2023/07/04 00:36:07;;;;;;;16.93;12.57;;;;;;;21.41;80.50;96920.16;5048243;28;20208;-79
2023/07/04 00:39:28;;;;;;;14.23;12.73;;;;;;;21.29;80.87;96929.19;5048755;28;20206;-77
2023/07/04 00:42:51;;;;;;;14.50;12.80;;;;;;;21.24;81.17;96931.38;5065162;28;20745;-81
2023/07/04 00:46:15;;;;;;;17.33;11.93;;;;;;;21.28;80.72;96944.16;5048276;28;20203;-80
2023/07/04 00:49:38;;;;;;;13.47;12.07;;;;;;;21.30;80.19;96936.09;5033998;28;20212;-81
2023/07/04 00:52:59;;;;;;;17.83;12.87;;;;;;;21.15;80.63;96950.63;5066000;28;20233;-77
2023/07/04 00:56:20;;;;;;;16.03;12.70;;;;;;;20.88;81.75;96952.09;5049229;28;20197;-79
2023/07/04 00:59:43;;;;;;;17.90;12.67;;;;;;;20.58;83.26;96953.94;5051998;28;20209;-80
2023/07/04 01:03:04;;;;;;;19.13;13.87;;;;;;;20.41;84.29;96944.88;5049398;28;20209;-78
2023/07/04 01:06:27;;;;;;;15.20;12.70;;;;;;;20.40;84.27;96945.88;5047598;28;20244;-77
2023/07/04 01:09:47;;;;;;;15.50;13.17;;;;;;;20.38;83.70;96939.88;5066243;28;20201;-75
2023/07/04 01:13:09;;;;;;;13.97;12.37;;;;;;;20.47;83.90;96940.88;5066303;28;20711;-74
2023/07/04 01:16:31;;;;;;;14.40;11.80;;;;;;;20.44;84.02;96935.91;5065554;28;20201;-78
2023/07/04 01:19:52;;;;;;;15.40;12.47;;;;;;;20.06;84.28;96920.75;5046948;28;20239;-79
2023/07/04 01:23:23;;;;;;;14.53;11.20;;;;;;;19.95;84.34;96918.19;5050349;28;20204;-77
2023/07/04 01:26:36;;;;;;;14.07;11.97;;;;;;;20.23;83.38;96933.31;5048320;28;20243;-77
2023/07/04 01:30:03;;;;;;;13.10;10.97;;;;;;;20.15;82.89;96925.22;5047734;28;20232;-79
2023/07/04 01:33:24;;;;;;;17.10;11.90;;;;;;;20.32;81.97;96943.03;5064899;28;20221;-76
2023/07/04 01:36:45;;;;;;;13.53;11.93;;;;;;;20.15;82.40;96927.88;5065617;28;20194;-79
2023/07/04 01:40:09;;;;;;;15.40;11.77;;;;;;;20.30;82.00;96929.19;5047943;28;20193;-78
2023/07/04 01:43:30;;;;;;;14.87;11.57;;;;;;;20.65;80.77;96945.38;5048106;28;20288;-79
2023/07/04 01:46:51;;;;;;;16.10;11.33;;;;;;;20.83;79.82;96942.94;5028169;28;20644;-79
2023/07/04 01:50:11;;;;;;;13.57;11.40;;;;;;;20.91;79.11;96938.66;5027344;28;20202;-76
2023/07/04 01:53:32;;;;;;;15.10;11.17;;;;;;;20.98;78.90;96931.88;5027984;28;20246;-75
2023/07/04 01:56:53;;;;;;;14.70;11.27;;;;;;;21.00;78.84;96945.72;5027753;28;20194;-76
2023/07/04 02:00:14;;;;;;;15.13;10.20;;;;;;;20.94;79.35;96941.00;5013248;28;20226;-76
2023/07/04 02:03:36;;;;;;;14.57;10.13;;;;;;;21.06;78.37;96934.69;5045364;28;20213;-77
2023/07/04 02:06:56;;;;;;;13.93;10.90;;;;;;;21.24;77.75;96947.19;5027249;28;20229;-74
2023/07/04 02:10:17;;;;;;;13.90;10.80;;;;;;;21.14;78.42;96943.72;5013346;28;20887;-74
2023/07/04 02:13:38;;;;;;;13.13;10.43;;;;;;;21.17;77.75;96938.16;5027797;28;20222;-75
2023/07/04 02:16:59;;;;;;;13.57;10.87;;;;;;;21.02;78.32;96949.09;5028781;28;20205;-76
2023/07/04 02:20:21;;;;;;;12.90;10.60;;;;;;;21.05;77.87;96946.22;5048771;28;20654;-75
2023/07/04 02:23:41;;;;;;;14.77;10.93;;;;;;;21.02;77.43;96946.47;5048763;28;20432;-75
2023/07/04 02:27:02;;;;;;;16.20;11.03;;;;;;;20.81;78.42;96947.50;5031273;28;20209;-76
2023/07/04 02:30:23;;;;;;;14.03;11.23;;;;;;;20.58;79.20;96940.78;5048541;28;20610;-75
2023/07/04 02:33:43;;;;;;;12.93;10.83;;;;;;;20.61;78.75;96943.97;5032918;28;20664;-75
2023/07/04 02:37:05;;;;;;;12.70;9.50;;;;;;;20.52;79.19;96950.06;5031018;28;20232;-77
2023/07/04 02:40:26;;;;;;;18.23;10.47;;;;;;;20.34;79.09;96906.91;5016721;28;20702;-76
2023/07/04 02:43:46;;;;;;;13.30;10.43;;;;;;;20.55;78.49;96956.84;5014486;28;20678;-77
2023/07/04 02:47:08;;;;;;;23.23;11.10;;;;;;;20.41;79.30;96958.03;5030826;28;20206;-79
2023/07/04 02:50:29;;;;;;;18.47;11.20;;;;;;;20.62;78.68;96957.97;5030294;28;20739;-74
2023/07/04 02:53:50;;;;;;;15.23;10.27;;;;;;;20.23;79.88;96957.00;5029970;28;20743;-75
2023/07/04 02:57:14;;;;;;;14.47;10.10;;;;;;;20.22;80.04;96950.06;5031434;28;20292;-75
2023/07/04 03:00:35;;;;;;;16.23;10.40;;;;;;;20.50;79.67;96965.16;5029359;28;20584;-76
2023/07/04 03:03:58;;;;;;;15.87;9.90;;;;;;;20.54;79.07;96956.03;5010888;28;20282;-75
2023/07/04 03:07:20;;;;;;;13.47;10.07;;;;;;;20.54;78.55;96963.06;5010412;28;20195;-75
2023/07/04 03:10:41;;;;;;;14.90;10.53;;;;;;;20.13;79.36;96948.19;5028320;28;20204;-74
2023/07/04 03:14:04;;;;;;;22.83;10.83;;;;;;;19.60;82.53;96960.56;5013544;28;20265;-75
2023/07/04 03:17:25;;;;;;;21.30;13.17;;;;;;;19.22;84.53;96958.47;5000193;28;20206;-77
2023/07/04 03:20:47;;;;;;;15.23;11.50;;;;;;;19.37;83.87;96959.03;5026391;28;20596;-82
2023/07/04 03:24:08;;;;;;;16.70;11.87;;;;;;;19.65;82.09;96947.06;5009960;28;20702;-79
2023/07/04 03:27:29;;;;;;;17.27;12.57;;;;;;;20.02;80.68;96961.41;5026708;28;20203;-77
2023/07/04 03:30:52;;;;;;;18.60;13.93;;;;;;;19.51;82.95;96955.25;5010523;28;20198;-77
2023/07/04 03:34:13;;;;;;;20.13;15.03;;;;;;;19.41;83.01;96916.59;5019589;28;20240;-82
2023/07/04 03:37:33;;;;;;;20.17;13.37;;;;;;;19.55;82.80;96946.16;5011781;28;20271;-80
2023/07/04 03:40:54;;;;;;;18.03;12.70;;;;;;;20.03;81.12;96956.00;5036862;28;20202;-78
2023/07/04 03:44:16;;;;;;;18.37;12.73;;;;;;;20.41;79.55;96963.31;5012754;28;20209;-80
2023/07/04 03:47:36;;;;;;;16.90;12.50;;;;;;;20.28;80.12;96957.41;5011864;28;20306;-77
2023/07/04 03:50:57;;;;;;;15.70;12.17;;;;;;;20.65;78.95;96953.28;5009172;28;20304;-79
2023/07/04 03:54:18;;;;;;;13.80;11.90;;;;;;;21.38;75.57;96959.94;5015589;28;20722;-76
2023/07/04 03:57:39;;;;;;;15.70;11.20;;;;;;;21.91;73.52;96968.28;5016149;28;20737;-79
2023/07/04 04:01:00;;;;;;;13.87;10.40;;;;;;;22.55;71.17;96959.47;5033815;28;20224;-75
2023/07/04 04:04:21;;;;;;;12.70;10.57;;;;;;;22.66;70.18;96961.13;5066367;28;20640;-75
2023/07/04 04:07:41;;;;;;;15.20;10.73;;;;;;;22.48;71.38;96961.00;5034279;28;20321;-78
2023/07/04 04:11:02;;;;;;;15.80;10.90;;;;;;;22.23;71.30;96974.03;5030659;28;20677;-80
2023/07/04 04:14:23;;;;;;;15.43;10.37;;;;;;;22.57;70.88;96973.34;5054435;28;20483;-79
2023/07/04 04:17:44;;;;;;;12.67;9.30;;;;;;;23.20;68.74;96986.69;5058810;28;20204;-74
2023/07/04 04:21:07;;;;;;;14.93;9.73;;;;;;;23.56;66.74;96984.91;5037813;28;20194;-76
2023/07/04 04:24:30;;;;;;;14.33;10.30;;;;;;;23.56;67.06;96982.25;5041134;28;20199;-76
2023/07/04 04:27:51;;;;;;;13.23;9.67;;;;;;;23.84;66.26;96986.50;5040170;28;20735;-76
2023/07/04 04:31:12;;;;;;;12.17;10.00;;;;;;;23.80;66.46;96995.72;5066479;28;20208;-78
2023/07/04 04:34:33;;;;;;;12.87;10.20;;;;;;;23.74;66.50;96997.13;5066626;28;20298;-80
2023/07/04 04:37:53;;;;;;;13.13;9.73;;;;;;;23.64;67.34;96992.94;5066191;28;20204;-75
2023/07/04 04:41:15;;;;;;;14.40;9.93;;;;;;;23.61;67.56;96991.41;5066305;28;20259;-82
2023/07/04 04:44:39;;;;;;;15.20;9.13;;;;;;;23.71;67.34;96999.25;5050575;28;20208;-79
2023/07/04 04:48:01;;;;;;;12.60;9.23;;;;;;;24.02;66.88;96998.72;5034121;28;20202;-76
2023/07/04 04:51:24;;;;;;;10.70;8.67;;;;;;;24.06;66.36;97000.09;5065343;28;20793;-73
2023/07/04 04:54:46;;;;;;;12.87;10.03;;;;;;;23.83;66.53;96967.13;5064777;28;20213;-77
2023/07/04 04:58:11;;;;;;;10.37;8.60;;;;;;;24.10;66.09;96972.34;5066761;28;20266;-75
2023/07/04 05:01:16;;;;;;;9.67;8.43;;;;;;;24.34;66.21;97005.25;5030143;28;20234;-75
2023/07/04 05:03:45;;;;;;;12.33;9.40;;;;;;;24.20;67.26;96996.88;5066088;28;20617;-76
2023/07/04 05:06:12;;;;;;;11.67;8.87;;;;;;;24.54;65.53;96996.09;5032449;28;20309;-74
2023/07/04 05:08:40;;;;;;;12.27;9.07;;;;;;;24.94;64.23;96991.00;5048347;28;20200;-79
2023/07/04 05:11:09;;;;;;;12.90;9.03;;;;;;;25.32;63.22;97008.19;5066825;28;20190;-79
2023/07/04 05:13:38;;;;;;;12.47;8.57;;;;;;;25.50;62.36;97017.72;5066289;28;20331;-73
2023/07/04 05:16:09;;;;;;;11.73;8.97;;;;;;;25.68;61.95;97018.41;5066336;28;20253;-75
2023/07/04 05:18:39;;;;;;;13.13;8.70;;;;;;;25.49;62.22;97018.69;5066968;28;20202;-76
2023/07/04 05:21:10;;;;;;;10.97;9.43;;;;;;;25.43;62.09;97011.41;5048298;28;20203;-76
2023/07/04 05:23:41;;;;;;;12.00;8.70;;;;;;;25.73;62.08;97016.09;5048245;28;20205;-76
2023/07/04 05:26:17;;;;;;;10.67;8.47;;;;;;;25.76;62.32;97013.13;5031505;28;20193;-75
2023/07/04 05:28:47;;;;;;;11.77;8.20;;;;;;;25.82;61.25;97007.16;5066354;28;20199;-76
2023/07/04 05:31:18;;;;;;;12.03;8.67;;;;;;;26.15;60.88;97017.81;5066423;28;20213;-76
2023/07/04 05:34:39;;;;;;;9.57;8.33;;;;;;;26.26;59.25;97015.63;5030782;28;20228;-82
2023/07/04 05:39:36;;;;;;;10.50;8.83;;;;;;;26.42;59.61;97026.22;5058072;28;20296;-81
2023/07/04 05:44:24;;;;;;;11.87;9.20;;;;;;;26.62;59.28;97021.41;5043435;28;20658;-85
2023/07/04 06:02:58;;;;;;;12.47;7.97;;;;;;;27.87;53.52;97008.84;5032942;28;20365;-86
2023/07/04 06:12:19;;;;;;;9.90;7.13;;;;;;;27.91;54.72;97005.66;5008108;28;20207;-84
2023/07/04 06:25:13;;;;;;;12.07;7.87;;;;;;;28.47;52.61;97014.19;5005399;28;20203;-86
2023/07/04 06:29:22;;;;;;;9.73;7.17;;;;;;;28.89;51.71;97006.44;4993967;28;20270;-82
2023/07/04 06:33:49;;;;;;;8.80;6.40;;;;;;;29.05;50.28;97005.41;4929155;29;20237;-84
2023/07/04 06:37:38;;;;;;;11.67;7.60;;;;;;;29.09;49.84;97007.53;4910176;29;20790;-86
2023/07/04 06:41:00;;;;;;;8.93;7.03;;;;;;;28.93;51.23;97005.06;4899870;29;20313;-76
2023/07/04 06:44:20;;;;;;;10.37;7.80;;;;;;;28.84;51.93;97004.31;4911906;29;20639;-77
2023/07/04 06:47:42;;;;;;;11.07;7.73;;;;;;;28.95;50.37;96998.50;4915039;29;20203;-76
2023/07/04 06:51:04;;;;;;;8.87;7.63;;;;;;;28.76;50.51;97000.91;4934112;29;20210;-78
2023/07/04 06:54:07;;;;;;;12.20;8.03;;;;;;;28.68;51.50;96991.19;4934439;29;20651;-76
2023/07/04 06:56:37;;;;;;;12.50;7.90;;;;;;;28.73;51.69;96985.28;4916051;28;20202;-76
2023/07/04 06:59:46;;;;;;;11.33;8.40;;;;;;;28.80;52.25;96984.38;4970877;28;20232;-76
2023/07/04 07:03:10;;;;;;;24.90;10.20;;;;;;;29.09;50.08;96988.00;5006575;28;20227;-77
2023/07/04 07:06:31;;;;;;;11.67;9.00;;;;;;;29.31;51.33;96982.56;4991924;28;20820;-74
2023/07/04 07:09:53;;;;;;;10.43;8.53;;;;;;;29.68;49.05;96986.88;5007769;28;20205;-75
2023/07/04 07:13:13;;;;;;;8.77;7.87;;;;;;;29.78;48.38;96990.09;5024320;28;20273;-77
2023/07/04 07:16:43;;;;;;;13.77;9.20;;;;;;;29.77;48.05;96987.59;5007792;28;20593;-75
2023/07/04 07:20:04;;;;;;;10.00;8.17;;;;;;;29.87;48.58;96996.13;4991559;28;20198;-77
2023/07/04 07:22:46;;;;;;;8.90;7.87;;;;;;;29.83;48.76;96989.50;5022017;28;20192;-78
2023/07/04 07:25:54;;;;;;;12.00;7.93;;;;;;;29.71;48.13;96995.34;5048976;28;20707;-77
2023/07/04 07:29:15;;;;;;;10.27;9.00;;;;;;;29.81;48.82;96988.88;5047866;28;20197;-78
2023/07/04 07:32:36;;;;;;;10.07;9.00;;;;;;;29.84;48.18;96991.19;5014593;28;20294;-74
2023/07/04 07:35:56;;;;;;;8.00;7.20;;;;;;;29.67;47.23;96996.75;5029664;28;20202;-76
2023/07/04 07:39:20;;;;;;;10.27;7.67;;;;;;;29.52;47.75;96989.78;5058523;28;20196;-77
2023/07/04 07:42:41;;;;;;;8.87;7.03;;;;;;;29.76;47.51;97002.78;5068391;28;20621;-77
2023/07/04 07:46:01;;;;;;;9.80;7.50;;;;;;;30.09;46.55;96990.56;5068525;28;20189;-79
2023/07/04 07:49:23;;;;;;;8.67;7.33;;;;;;;30.15;47.10;96991.69;5064156;28;20526;-78
2023/07/04 07:52:44;;;;;;;9.83;7.73;;;;;;;29.59;47.94;96994.16;5066707;28;20221;-78
2023/07/04 07:56:06;;;;;;;9.27;7.40;;;;;;;29.88;47.55;96979.09;5066945;28;20704;-75
2023/07/04 07:59:27;;;;;;;10.97;8.43;;;;;;;30.14;46.37;96985.50;5067703;28;20683;-75
2023/07/04 08:02:54;;;;;;;9.97;7.80;;;;;;;30.44;45.66;96984.31;5066576;28;20297;-75
2023/07/04 08:06:18;;;;;;;9.83;7.63;;;;;;;30.60;43.80;96993.91;5066377;28;20260;-77
2023/07/04 08:09:26;;;;;;;8.63;7.07;;;;;;;30.64;43.88;96991.66;5066577;28;20220;-76
2023/07/04 08:12:36;;;;;;;7.73;6.93;;;;;;;30.39;43.29;96991.28;5049530;28;20258;-74
2023/07/04 08:15:57;;;;;;;10.63;7.33;;;;;;;30.50;44.20;96996.09;5064886;28;20196;-76
2023/07/04 08:19:18;;;;;;;8.83;7.20;;;;;;;30.56;43.62;96999.81;5049354;28;20208;-75
2023/07/04 08:21:59;;;;;;;8.13;7.00;;;;;;;30.57;43.35;96991.59;5064615;28;20193;-79
2023/07/04 08:25:06;;;;;;;9.03;7.33;;;;;;;30.52;43.30;96992.19;5065258;28;20635;-78
2023/07/04 08:28:27;;;;;;;10.23;7.67;;;;;;;30.77;42.92;96983.72;5066849;28;20204;-79
2023/07/04 08:31:48;;;;;;;9.60;7.50;;;;;;;30.79;42.28;96992.38;5065955;28;20226;-74
2023/07/04 08:35:09;;;;;;;10.33;7.93;;;;;;;31.04;41.45;96991.69;5064544;28;20204;-76
2023/07/04 08:38:30;;;;;;;8.23;6.80;;;;;;;30.92;41.84;96993.28;5067478;28;20215;-76
2023/07/04 08:41:35;;;;;;;12.20;7.93;;;;;;;30.97;41.36;96998.03;5048353;28;20197;-73
2023/07/04 08:45:02;;;;;;;9.50;7.43;;;;;;;30.70;41.81;96964.94;5065768;28;20236;-75
2023/07/04 08:48:23;;;;;;;8.20;7.27;;;;;;;31.05;41.37;96987.19;5065931;28;20194;-74
2023/07/04 08:52:02;;;;;;;10.80;8.97;;;;;;;31.26;40.92;96984.38;5064007;28;20194;-76
2023/07/04 08:54:47;;;;;;;10.63;7.80;;;;;;;31.08;41.21;96998.31;5065621;28;20888;-74
2023/07/04 08:57:38;;;;;;;13.07;7.50;;;;;;;31.43;41.25;96993.72;5016178;28;20243;-75
2023/07/04 09:00:29;;;;;;;9.23;7.67;;;;;;;31.61;40.38;96991.34;5032406;28;20273;-75
2023/07/04 09:04:01;;;;;;;8.13;6.60;;;;;;;31.68;40.57;96986.78;5047670;28;20201;-76
2023/07/04 09:07:22;;;;;;;9.10;7.03;;;;;;;31.10;42.67;96988.22;5064473;28;20681;-77
2023/07/04 09:10:29;;;;;;;10.67;8.10;;;;;;;31.44;42.11;96978.50;5029765;28;20221;-76
2023/07/04 09:13:50;;;;;;;14.17;9.87;;;;;;;31.31;42.34;96976.56;5047757;28;20229;-79
2023/07/04 09:17:12;;;;;;;8.57;7.57;;;;;;;31.18;42.19;96982.69;5064173;28;20197;-79
2023/07/04 09:20:36;;;;;;;8.17;7.07;;;;;;;30.65;43.30;96980.75;5048991;28;20193;-78
2023/07/04 09:24:01;;;;;;;8.47;7.27;;;;;;;30.80;42.50;96977.97;5049469;28;20744;-80
2023/07/04 09:27:22;;;;;;;11.77;8.17;;;;;;;30.73;42.91;96990.47;5066242;28;20201;-74
2023/07/04 09:30:43;;;;;;;8.10;7.17;;;;;;;30.41;44.69;96986.56;5065651;28;20284;-77
2023/07/04 09:34:04;;;;;;;7.57;6.77;;;;;;;30.90;43.11;96978.44;5033614;28;20315;-82
2023/07/04 09:37:26;;;;;;;7.40;6.63;;;;;;;30.71;43.31;96992.53;5064701;28;20220;-75
2023/07/04 09:41:02;;;;;;;9.47;7.97;;;;;;;31.16;41.71;96986.63;5064665;28;20205;-75
2023/07/04 09:44:36;;;;;;;7.70;6.97;;;;;;;31.07;42.71;96983.28;5064778;28;20729;-76
2023/07/04 09:48:03;;;;;;;10.90;6.60;;;;;;;30.97;41.66;96990.03;5032490;28;20684;-74
2023/07/04 09:51:23;;;;;;;8.37;7.03;;;;;;;30.75;43.10;96981.22;5047427;28;20210;-75
2023/07/04 09:54:46;;;;;;;7.53;5.73;;;;;;;30.64;39.39;96946.19;5015474;28;20662;-74
2023/07/04 09:58:11;;;;;;;7.50;6.67;;;;;;;31.30;39.60;96980.28;5064545;28;20189;-74
2023/07/04 10:01:39;;;;;;;8.00;6.90;;;;;;;31.41;41.22;96982.41;5046258;28;20611;-76
2023/07/04 10:05:14;;;;;;;7.70;6.90;;;;;;;31.38;39.38;96980.09;5065121;28;20204;-81
2023/07/04 10:08:38;;;;;;;7.90;6.95;;;;;;;31.16;41.16;96978.59;5064648;28;20201;-74
2023/07/04 10:12:29;;;;;;;8.52;6.90;;;;;;;30.79;40.07;96987.03;5064622;28;20707;-74
2023/07/04 10:15:56;;;;;;;11.10;7.63;;;;;;;30.70;42.04;96966.78;5031897;28;20214;-75
2023/07/04 10:19:28;;;;;;;9.03;6.77;;;;;;;31.02;40.39;96976.84;5066333;28;20861;-79
2023/07/04 10:22:49;;;;;;;10.10;7.53;;;;;;;31.63;39.04;96980.41;5065592;28;20681;-77
2023/07/04 10:26:12;;;;;;;7.82;6.57;;;;;;;31.72;39.92;96973.81;5047524;28;20198;-74
2023/07/04 10:29:34;;;;;;;10.05;6.75;;;;;;;31.90;40.17;96961.47;5064918;28;20208;-79
2023/07/04 10:32:54;;;;;;;7.07;6.18;;;;;;;31.76;39.28;96954.47;5045912;28;20275;-78
2023/07/04 10:36:17;;;;;;;8.90;6.85;;;;;;;31.56;39.40;96967.00;5031855;28;20284;-74
2023/07/04 10:39:40;;;;;;;8.48;6.22;;;;;;;31.36;39.66;96950.03;5068395;28;20280;-75
2023/07/04 10:42:46;;;;;;;7.97;7.18;;;;;;;31.71;39.52;96961.47;5050563;28;20266;-77
2023/07/04 10:46:08;;;;;;;8.15;6.57;;;;;;;32.06;40.00;96955.78;5033287;28;20574;-75
2023/07/04 10:49:30;;;;;;;7.07;6.38;;;;;;;31.92;40.59;96948.69;5068060;28;20300;-77
2023/07/04 10:52:54;;;;;;;9.27;6.57;;;;;;;31.39;41.38;96946.97;5058829;28;20291;-77
2023/07/04 10:56:24;;;;;;;9.07;7.13;;;;;;;31.63;40.73;96950.94;5048691;28;20228;-78
2023/07/04 10:59:45;;;;;;;8.02;7.05;;;;;;;31.64;40.18;96939.19;5048003;28;20200;-77
2023/07/04 11:03:09;;;;;;;10.98;7.90;;;;;;;31.69;39.52;96937.56;5029432;28;20297;-74
2023/07/04 11:06:30;;;;;;;7.23;6.53;;;;;;;30.21;41.53;96834.03;5030765;28;20198;-73
2023/07/04 11:09:51;;;;;;;7.83;6.80;;;;;;;30.91;41.42;96934.63;5018051;28;20208;-79
2023/07/04 11:13:13;;;;;;;8.03;6.30;;;;;;;31.26;40.03;96942.38;5053453;28;20712;-80
2023/07/04 11:16:34;;;;;;;9.33;7.67;;;;;;;31.61;40.11;96939.63;5030543;28;20615;-75
2023/07/04 11:19:55;;;;;;;8.30;6.93;;;;;;;32.25;38.97;96937.19;5013875;28;20209;-81
2023/07/04 11:23:20;;;;;;;8.95;7.18;;;;;;;32.01;38.76;96934.09;5016632;28;20208;-81
2023/07/04 11:26:41;;;;;;;8.18;6.40;;;;;;;32.07;39.70;96929.78;5048040;28;20201;-80
2023/07/04 11:30:07;;;;;;;9.68;6.63;;;;;;;32.38;38.07;96934.47;5047303;28;20420;-77
2023/07/04 11:33:57;;;;;;;7.03;6.40;;;;;;;32.02;37.92;96918.88;5031906;28;20230;-81
2023/07/04 11:37:20;;;;;;;7.72;6.88;;;;;;;31.93;38.40;96912.06;5047923;28;20198;-79
2023/07/04 11:40:10;;;;;;;8.20;6.60;;;;;;;32.26;37.76;96914.69;5048171;28;20201;-77
2023/07/04 11:42:46;;;;;;;7.70;6.20;;;;;;;32.18;37.49;96904.19;5030079;28;20202;-75
2023/07/04 11:45:21;;;;;;;6.50;5.90;;;;;;;32.17;36.92;96921.34;5030138;28;20202;-81
2023/07/04 11:48:02;;;;;;;7.63;5.90;;;;;;;31.97;37.66;96881.97;5048505;28;20271;-83
2023/07/04 11:51:04;;;;;;;7.65;6.00;;;;;;;32.17;37.71;96905.25;5029745;28;20245;-78
2023/07/04 11:54:07;;;;;;;7.03;6.32;;;;;;;32.52;36.47;96906.66;5047683;28;20241;-76
2023/07/04 11:57:16;;;;;;;8.40;6.45;;;;;;;32.37;37.23;96896.13;4997982;28;20284;-79
2023/07/04 12:00:28;;;;;;;8.13;6.10;;;;;;;32.58;37.30;96905.81;5047493;28;20228;-79
2023/07/04 12:03:29;;;;;;;9.05;6.53;;;;;;;32.02;38.40;96908.97;5047520;28;20213;-74
2023/07/04 12:06:54;;;;;;;8.88;6.32;;;;;;;32.41;37.28;96910.78;5026800;28;20670;-76
2023/07/04 12:10:37;;;;;;;7.20;6.50;;;;;;;31.93;37.07;96891.44;5030822;28;20296;-76
2023/07/04 12:13:59;;;;;;;8.65;6.57;;;;;;;32.23;37.11;96891.84;4939912;28;20332;-78
2023/07/04 12:17:21;;;;;;;7.13;6.43;;;;;;;32.50;36.75;96892.63;5028396;28;20202;-78
2023/07/04 12:20:47;;;;;;;7.80;7.00;;;;;;;32.60;36.80;96895.69;5046183;28;20228;-76
2023/07/04 12:24:09;;;;;;;6.30;5.53;;;;;;;32.61;36.31;96890.13;5028614;28;20410;-78
2023/07/04 12:27:36;;;;;;;7.45;6.75;;;;;;;32.45;36.90;96879.00;5031392;28;20684;-78
2023/07/04 12:30:59;;;;;;;7.93;6.60;;;;;;;32.61;37.53;96879.38;5028190;28;20208;-76
2023/07/04 12:34:20;;;;;;;7.85;6.18;;;;;;;32.82;37.14;96875.59;5030325;28;20237;-79
2023/07/04 12:37:42;;;;;;;8.48;6.53;;;;;;;33.10;36.83;96868.03;5046173;28;20677;-75
2023/07/04 12:41:01;;;;;;;6.75;5.95;;;;;;;33.09;36.82;96857.53;5045920;28;20205;-78
2023/07/04 12:44:21;;;;;;;11.15;6.47;;;;;;;33.24;37.44;96858.88;5046931;28;20581;-77
2023/07/04 12:47:44;;;;;;;7.03;6.32;;;;;;;32.74;38.26;96852.53;5048065;28;20665;-77
2023/07/04 12:51:05;;;;;;;6.90;6.25;;;;;;;32.28;39.08;96849.13;5028373;28;20210;-74
2023/07/04 12:54:27;;;;;;;7.55;6.55;;;;;;;32.55;39.56;96855.25;5015832;28;20299;-77
2023/07/04 12:57:52;;;;;;;10.48;6.88;;;;;;;32.81;38.22;96847.94;5028186;28;20205;-74
2023/07/04 13:00:56;;;;;;;9.27;7.45;;;;;;;32.87;39.02;96843.59;5029753;28;20233;-75
2023/07/04 13:04:18;;;;;;;6.45;5.85;;;;;;;32.99;38.30;96849.13;5027512;28;20210;-81
2023/07/04 13:07:44;;;;;;;7.55;6.25;;;;;;;32.88;39.37;96831.81;5046054;28;20193;-77
2023/07/04 13:11:07;;;;;;;12.05;6.57;;;;;;;32.93;38.83;96845.41;5030065;28;20205;-81
2023/07/04 13:14:31;;;;;;;8.93;6.13;;;;;;;32.52;38.13;96836.94;5046544;28;20237;-81
2023/07/04 13:17:52;;;;;;;6.97;6.25;;;;;;;32.45;38.56;96826.19;5012724;28;20264;-76
2023/07/04 13:21:14;;;;;;;8.23;6.15;;;;;;;32.47;38.97;96832.19;5013766;28;20702;-78
2023/07/04 13:24:24;;;;;;;8.13;6.22;;;;;;;32.52;39.13;96840.41;5028205;28;20209;-81
2023/07/04 13:27:55;;;;;;;14.60;7.43;;;;;;;32.47;39.42;96834.03;5028319;28;20202;-82
2023/07/04 13:31:16;;;;;;;7.65;6.28;;;;;;;32.50;38.77;96836.31;5027817;28;20213;-83
2023/07/04 13:34:37;;;;;;;8.95;6.50;;;;;;;32.69;38.51;96828.19;5026279;28;20335;-84
2023/07/04 13:38:00;;;;;;;7.20;6.47;;;;;;;32.85;38.27;96832.25;5046715;28;20205;-84
2023/07/04 13:41:24;;;;;;;7.45;6.45;;;;;;;32.68;39.15;96831.09;5050030;28;20198;-83
2023/07/04 13:44:48;;;;;;;7.18;5.75;;;;;;;32.77;38.41;96825.25;5054526;28;20255;-82
2023/07/04 13:48:11;;;;;;;9.85;6.07;;;;;;;32.91;37.67;96823.34;5064960;28;20231;-82
2023/07/04 13:51:34;;;;;;;8.77;7.10;;;;;;;33.33;37.35;96817.31;5053937;28;20204;-82
2023/07/04 13:54:54;;;;;;;9.30;6.10;;;;;;;32.73;39.80;96826.72;5035838;28;20229;-83
2023/07/04 13:58:15;;;;;;;14.55;7.65;;;;;;;32.88;38.64;96811.16;5048270;28;20288;-82
2023/07/04 14:01:39;;;;;;;7.53;5.90;;;;;;;32.83;38.52;96823.56;5047643;28;20267;-85
2023/07/04 14:04:21;;;;;;;8.15;6.72;;;;;;;32.82;38.96;96792.41;5062423;28;20248;-85
2023/07/04 14:07:08;;;;;;;8.43;5.85;;;;;;;32.60;40.08;96799.13;5000994;28;20207;-79
2023/07/04 14:09:36;;;;;;;9.77;6.80;;;;;;;32.91;39.37;96803.72;5004037;28;21357;-84
2023/07/04 14:12:04;;;;;;;7.60;6.82;;;;;;;32.93;40.44;96794.44;5004014;28;20209;-84
2023/07/04 14:14:32;;;;;;;8.10;7.22;;;;;;;32.97;39.49;96808.22;5007926;28;20786;-84
2023/07/04 14:17:03;;;;;;;7.60;6.80;;;;;;;32.56;40.36;96805.97;4987063;28;20738;-78
2023/07/04 14:19:34;;;;;;;7.65;6.82;;;;;;;32.44;39.78;96800.41;4987774;28;20204;-81
2023/07/04 14:22:07;;;;;;;7.93;6.28;;;;;;;32.20;40.88;96786.88;4972044;28;20222;-81
2023/07/04 14:24:36;;;;;;;6.82;6.13;;;;;;;32.03;40.81;96790.00;4996347;28;20272;-84
2023/07/04 14:27:10;;;;;;;9.60;6.20;;;;;;;32.05;40.59;96789.78;5042956;28;20221;-86
2023/07/04 14:29:56;;;;;;;9.75;6.65;;;;;;;31.97;40.77;96777.47;5068837;28;20300;-74
2023/07/04 14:32:24;;;;;;;9.00;6.75;;;;;;;31.76;40.51;96783.03;5051970;28;20731;-75
2023/07/04 14:34:55;;;;;;;7.70;6.05;;;;;;;31.71;41.55;96782.00;5069450;28;20205;-80
2023/07/04 14:37:25;;;;;;;7.50;6.40;;;;;;;31.84;42.19;96785.47;5048853;28;20206;-86
2023/07/04 14:39:56;;;;;;;7.47;6.22;;;;;;;32.01;40.53;96792.09;5020950;28;20197;-79
2023/07/04 14:42:30;;;;;;;7.75;6.95;;;;;;;31.66;42.55;96782.63;5038565;28;20204;-80
2023/07/04 14:45:02;;;;;;;7.97;6.70;;;;;;;31.90;41.38;96784.63;5071180;28;20232;-81
2023/07/04 14:47:31;;;;;;;11.45;7.85;;;;;;;31.79;42.63;96782.63;5069717;28;20213;-79
2023/07/04 14:50:07;;;;;;;18.33;9.05;;;;;;;32.06;40.71;96778.06;5058570;28;20189;-83
2023/07/04 14:52:35;;;;;;;10.93;7.38;;;;;;;32.01;41.55;96767.97;5053299;28;20267;-78
2023/07/04 14:55:02;;;;;;;8.05;6.60;;;;;;;32.02;41.85;96785.69;5051324;28;20193;-73
2023/07/04 14:57:36;;;;;;;8.50;6.50;;;;;;;31.96;40.75;96766.94;5052741;28;20208;-75
2023/07/04 15:00:09;;;;;;;9.20;8.30;;;;;;;32.02;40.33;96771.47;5050933;28;20643;-78
2023/07/04 15:02:36;;;;;;;10.45;6.90;;;;;;;32.02;40.52;96761.59;5051494;28;20248;-76
2023/07/04 15:05:06;;;;;;;9.65;7.43;;;;;;;32.02;40.79;96777.66;5069126;28;20629;-83
2023/07/04 15:07:34;;;;;;;8.57;6.28;;;;;;;31.96;40.53;96735.59;5068868;28;20194;-81
2023/07/04 15:10:03;;;;;;;8.32;7.20;;;;;;;31.98;41.22;96763.00;5034690;28;20204;-79
2023/07/04 15:12:31;;;;;;;9.25;7.18;;;;;;;31.86;40.49;96756.63;5050354;28;20216;-84
2023/07/04 15:15:00;;;;;;;8.20;7.20;;;;;;;31.87;41.86;96771.69;5069314;28;20193;-84
2023/07/04 15:17:33;;;;;;;9.43;6.70;;;;;;;31.62;42.28;96759.97;5034584;28;20303;-78
2023/07/04 15:20:08;;;;;;;8.13;6.23;;;;;;;31.58;42.21;96758.75;5035190;28;20238;-79
2023/07/04 15:22:38;;;;;;;7.63;6.82;;;;;;;31.74;42.20;96763.66;5070330;28;20228;-81
2023/07/04 15:25:11;;;;;;;7.27;6.57;;;;;;;31.90;41.88;96747.13;5067603;28;20236;-82
2023/07/04 15:27:38;;;;;;;7.32;6.25;;;;;;;31.99;42.12;96755.81;5052129;28;20185;-79
2023/07/04 15:30:06;;;;;;;6.75;6.15;;;;;;;31.62;42.23;96753.78;5052478;28;20213;-84